Time;durP1;ratioP1;P1;durP2;ratioP2;P2;SDS_P1;SDS_P2;PMS_P1;PMS_P2;Temp;Humidity;BMP_temperature;BMP_pressure;BME280_temperature;BME280_humidity;BME280_pressure;Samples;Min_cycle;Max_cycle;Signal;HPM_P1;HPM_P2
2021/08/27 00:01:17;;;;;;;1.90;0.85;;;14.50;78.40;;;;;;5054375;28;20452;-78
2021/08/27 00:03:42;;;;;;;3.03;0.65;;;14.50;78.40;;;;;;5054298;28;20047;-77
2021/08/27 00:06:08;;;;;;;1.25;0.52;;;14.40;79.10;;;;;;5072259;28;20499;-77
2021/08/27 00:08:34;;;;;;;1.60;0.60;;;14.40;78.50;;;;;;5072317;28;20028;-77
2021/08/27 00:10:59;;;;;;;1.50;0.68;;;14.40;78.60;;;;;;5072138;28;20441;-77
2021/08/27 00:13:25;;;;;;;1.83;0.60;;;14.40;78.60;;;;;;5054052;28;20017;-77
2021/08/27 00:15:51;;;;;;;1.55;0.70;;;14.40;78.70;;;;;;5053920;28;20496;-77
2021/08/27 00:18:16;;;;;;;1.65;0.60;;;14.40;78.70;;;;;;5072176;28;20055;-77
2021/08/27 00:20:42;;;;;;;3.05;0.80;;;14.40;78.70;;;;;;5054430;28;20039;-77
2021/08/27 00:23:08;;;;;;;2.22;0.45;;;14.40;78.80;;;;;;5054058;28;20491;-77
2021/08/27 00:25:34;;;;;;;3.15;0.88;;;14.30;78.80;;;;;;5071961;28;20067;-77
2021/08/27 00:27:59;;;;;;;1.70;0.52;;;14.30;78.80;;;;;;5072008;28;20039;-77
2021/08/27 00:30:25;;;;;;;3.50;0.70;;;14.30;78.90;;;;;;5056523;28;20104;-78
2021/08/27 00:32:51;;;;;;;2.33;0.80;;;14.30;79.00;;;;;;5075503;28;20070;-77
2021/08/27 00:35:16;;;;;;;3.42;1.00;;;14.20;79.00;;;;;;5075478;28;20029;-77
2021/08/27 00:41:04;;;;;;;4.85;0.88;;;14.20;79.20;;;;;;5075632;28;20086;-78
2021/08/27 00:43:30;;;;;;;1.67;0.50;;;14.20;79.20;;;;;;5057225;28;20119;-77
2021/08/27 00:45:55;;;;;;;4.00;0.82;;;14.20;79.30;;;;;;5075402;28;20023;-77
2021/08/27 00:48:21;;;;;;;4.85;0.80;;;14.20;79.40;;;;;;5057299;28;20028;-77
2021/08/27 00:50:47;;;;;;;4.18;0.70;;;14.20;79.40;;;;;;5057090;28;20443;-77
2021/08/27 00:53:13;;;;;;;1.70;0.70;;;14.20;79.50;;;;;;5057140;28;20396;-77
2021/08/27 00:55:40;;;;;;;2.47;0.82;;;14.10;79.50;;;;;;5075153;28;20128;-77
2021/08/27 00:58:06;;;;;;;5.38;0.70;;;14.20;79.60;;;;;;5075043;28;20028;-77
2021/08/27 01:00:32;;;;;;;4.10;0.47;;;14.20;79.60;;;;;;5075002;28;20422;-77
2021/08/27 01:02:58;;;;;;;1.65;0.68;;;14.20;79.70;;;;;;5075075;28;20496;-77
2021/08/27 01:05:24;;;;;;;3.70;0.80;;;14.20;79.70;;;;;;5057050;28;20028;-77
2021/08/27 01:08:12;;;;;;;2.88;0.50;;;14.20;79.80;;;;;;5074932;28;20510;-77
2021/08/27 01:10:48;;;;;;;2.83;0.52;;;14.20;79.90;;;;;;5056761;28;20516;-77
2021/08/27 01:13:18;;;;;;;2.50;0.70;;;14.20;80.00;;;;;;5074852;28;20051;-77
2021/08/27 01:15:50;;;;;;;4.13;0.82;;;14.20;80.00;;;;;;5056993;28;20502;-77
2021/08/27 01:18:40;;;;;;;2.42;0.60;;;14.10;80.00;;;;;;5074634;28;20039;-77
2021/08/27 01:21:44;;;;;;;2.53;0.73;;;14.10;80.10;;;;;;5056652;28;20036;-77
2021/08/27 01:24:11;;;;;;;2.72;0.63;;;14.10;80.10;;;;;;5056432;28;20093;-77
2021/08/27 01:26:45;;;;;;;3.78;0.70;;;14.10;80.00;;;;;;5074429;28;20052;-77
2021/08/27 01:29:17;;;;;;;1.75;0.52;;;14.10;80.10;;;;;;5056465;28;20054;-77
2021/08/27 01:31:45;;;;;;;3.92;0.80;;;14.00;80.10;;;;;;5056460;28;20020;-77
2021/08/27 01:34:19;;;;;;;2.65;0.80;;;14.10;80.30;;;;;;5074375;28;20029;-78
2021/08/27 01:36:46;;;;;;;5.97;0.60;;;14.00;80.20;;;;;;5074542;28;20074;-77
2021/08/27 01:39:14;;;;;;;4.57;0.82;;;14.10;80.30;;;;;;5074464;28;20028;-77
2021/08/27 01:41:41;;;;;;;2.58;0.68;;;14.00;80.30;;;;;;5056424;28;20487;-77
2021/08/27 01:44:10;;;;;;;2.00;0.55;;;14.00;80.30;;;;;;5056217;28;20035;-78
2021/08/27 01:46:38;;;;;;;2.90;0.80;;;14.00;80.30;;;;;;5056215;28;20095;-77
2021/08/27 01:49:06;;;;;;;2.30;0.80;;;14.00;80.40;;;;;;5055909;28;20032;-77
2021/08/27 01:51:32;;;;;;;5.03;0.73;;;14.00;80.40;;;;;;5056119;28;20028;-77
2021/08/27 01:54:00;;;;;;;2.08;0.70;;;13.90;80.40;;;;;;5056010;28;20507;-76
2021/08/27 01:56:27;;;;;;;2.85;0.70;;;13.90;80.50;;;;;;5089535;28;20514;-77
2021/08/27 01:58:53;;;;;;;2.80;0.88;;;13.90;80.50;;;;;;5055964;28;20031;-77
2021/08/27 02:01:19;;;;;;;2.13;0.70;;;13.90;80.60;;;;;;5073755;28;20388;-77
2021/08/27 02:03:46;;;;;;;3.30;0.90;;;13.90;80.60;;;;;;5055902;28;20025;-77
2021/08/27 02:06:13;;;;;;;2.75;0.70;;;13.90;80.70;;;;;;5073822;28;20146;-77
2021/08/27 02:08:39;;;;;;;0.88;0.50;;;13.90;80.80;;;;;;5073734;28;20052;-77
2021/08/27 02:11:05;;;;;;;4.15;0.90;;;13.80;80.70;;;;;;5055684;28;20064;-77
2021/08/27 02:13:31;;;;;;;2.40;0.70;;;13.90;80.80;;;;;;5073600;28;20100;-77
2021/08/27 02:15:57;;;;;;;3.80;1.00;;;13.90;81.00;;;;;;5055433;28;20036;-77
2021/08/27 02:18:23;;;;;;;1.35;0.55;;;13.90;80.90;;;;;;5055602;28;20368;-77
2021/08/27 02:20:49;;;;;;;2.58;0.80;;;13.90;80.90;;;;;;5055548;28;20025;-77
2021/08/27 02:23:15;;;;;;;2.88;0.70;;;13.90;80.90;;;;;;5073285;28;20043;-77
2021/08/27 02:25:47;;;;;;;4.82;0.95;;;13.90;80.90;;;;;;5055315;28;20033;-77
2021/08/27 02:28:14;;;;;;;4.75;0.95;;;14.00;80.90;;;;;;5055366;28;20074;-77
2021/08/27 02:30:41;;;;;;;2.92;0.80;;;14.00;81.00;;;;;;5055236;28;20035;-77
2021/08/27 02:33:10;;;;;;;3.50;0.70;;;14.00;80.90;;;;;;5073238;28;20062;-77
2021/08/27 02:35:37;;;;;;;4.45;0.98;;;14.00;80.90;;;;;;5088924;28;20042;-77
2021/08/27 02:38:04;;;;;;;4.75;0.90;;;14.00;80.80;;;;;;5073159;28;20150;-77
2021/08/27 02:40:29;;;;;;;4.43;0.80;;;14.00;80.80;;;;;;5073090;28;20503;-77
2021/08/27 02:42:55;;;;;;;2.65;0.70;;;14.00;80.90;;;;;;5055061;28;20036;-77
2021/08/27 02:45:21;;;;;;;3.72;0.80;;;14.00;81.00;;;;;;5054959;28;20032;-77
2021/08/27 02:47:46;;;;;;;2.90;0.77;;;13.90;81.10;;;;;;5055125;28;20048;-77
2021/08/27 02:50:13;;;;;;;3.65;0.93;;;13.90;81.10;;;;;;5054898;28;20033;-77
2021/08/27 02:52:51;;;;;;;1.70;0.63;;;13.90;81.10;;;;;;5054409;28;20020;-77
2021/08/27 02:55:22;;;;;;;1.80;0.70;;;13.90;81.30;;;;;;5054771;28;20036;-77
2021/08/27 02:58:02;;;;;;;4.28;0.98;;;13.80;81.30;;;;;;5054743;28;20116;-77
2021/08/27 03:00:33;;;;;;;2.58;1.00;;;13.80;81.50;;;;;;5072821;28;20033;-77
2021/08/27 03:03:01;;;;;;;4.57;1.00;;;13.80;81.50;;;;;;5072790;28;20027;-77
2021/08/27 03:05:33;;;;;;;3.03;0.80;;;13.70;81.50;;;;;;5072785;28;20495;-77
2021/08/27 03:08:03;;;;;;;3.88;1.00;;;13.70;81.60;;;;;;5054737;28;20060;-77
2021/08/27 03:10:30;;;;;;;1.88;0.70;;;13.80;81.60;;;;;;5072669;28;20369;-77
2021/08/27 03:13:13;;;;;;;3.90;1.05;;;13.80;81.50;;;;;;5072911;28;20476;-77
2021/08/27 03:16:00;;;;;;;2.97;0.77;;;13.80;81.60;;;;;;5054854;28;20119;-77
2021/08/27 03:18:34;;;;;;;7.28;1.08;;;13.90;81.60;;;;;;5054839;28;20044;-77
2021/08/27 03:21:09;;;;;;;5.38;0.80;;;13.90;81.50;;;;;;5054754;28;20044;-77
2021/08/27 03:23:37;;;;;;;2.60;0.80;;;13.80;81.50;;;;;;5055162;28;20031;-77
2021/08/27 03:26:07;;;;;;;1.98;0.90;;;13.90;81.50;;;;;;5054567;28;20052;-77
2021/08/27 03:28:40;;;;;;;2.15;0.80;;;13.90;81.50;;;;;;5054816;28;20056;-77
2021/08/27 03:31:06;;;;;;;2.72;0.90;;;14.00;81.50;;;;;;5072714;28;20086;-77
2021/08/27 03:33:33;;;;;;;3.50;0.80;;;14.00;81.40;;;;;;5054666;28;20016;-77
2021/08/27 03:36:00;;;;;;;3.67;0.80;;;14.00;81.40;;;;;;5088174;28;20055;-77
2021/08/27 03:38:27;;;;;;;1.85;0.50;;;14.00;81.40;;;;;;5054705;28;20023;-77
2021/08/27 03:40:56;;;;;;;2.15;0.73;;;14.10;81.40;;;;;;5072595;28;20037;-77
2021/08/27 03:43:23;;;;;;;2.13;0.90;;;14.10;81.30;;;;;;5054611;28;20051;-77
2021/08/27 03:45:51;;;;;;;2.13;0.70;;;14.10;81.20;;;;;;5072497;28;20078;-77
2021/08/27 03:48:21;;;;;;;1.35;0.60;;;14.20;81.20;;;;;;5054585;28;20025;-77
2021/08/27 03:50:53;;;;;;;3.53;0.70;;;14.10;81.20;;;;;;5054409;28;20518;-77
2021/08/27 03:53:19;;;;;;;2.47;0.90;;;14.20;81.30;;;;;;5054383;28;20028;-78
2021/08/27 03:55:50;;;;;;;3.00;0.80;;;14.20;81.30;;;;;;5054403;28;20017;-77
2021/08/27 03:58:18;;;;;;;3.05;0.80;;;14.20;81.30;;;;;;5054300;28;20525;-77
2021/08/27 04:00:45;;;;;;;3.20;1.00;;;14.20;81.30;;;;;;5072289;28;20028;-77
2021/08/27 04:03:12;;;;;;;3.42;0.68;;;14.20;81.20;;;;;;5072292;28;20067;-77
2021/08/27 04:05:38;;;;;;;3.67;0.90;;;14.20;81.20;;;;;;5057329;28;20021;-77
2021/08/27 04:08:03;;;;;;;2.40;0.80;;;14.20;81.30;;;;;;5058136;28;20055;-77
2021/08/27 04:10:29;;;;;;;4.15;1.02;;;14.20;81.40;;;;;;5076054;28;20043;-77
2021/08/27 04:12:55;;;;;;;2.70;0.70;;;14.20;81.40;;;;;;5058080;28;20025;-77
2021/08/27 04:15:23;;;;;;;3.58;0.80;;;14.10;81.50;;;;;;5058055;28;20078;-77
2021/08/27 04:17:49;;;;;;;2.30;0.73;;;14.10;81.60;;;;;;5057967;28;20392;-77
2021/08/27 04:20:15;;;;;;;2.38;0.90;;;14.10;81.70;;;;;;5058201;28;20024;-77
2021/08/27 04:22:41;;;;;;;2.25;0.70;;;14.00;81.70;;;;;;5057816;28;20392;-77
2021/08/27 04:25:07;;;;;;;2.65;0.77;;;14.00;81.70;;;;;;5075482;28;20071;-76
2021/08/27 04:27:33;;;;;;;1.58;0.70;;;14.00;81.80;;;;;;5057971;28;20036;-77
2021/08/27 04:29:58;;;;;;;2.70;0.70;;;14.00;81.90;;;;;;5075581;28;20392;-78
2021/08/27 04:32:24;;;;;;;1.30;0.60;;;13.90;81.80;;;;;;5058120;28;20024;-79
2021/08/27 04:34:50;;;;;;;3.20;0.98;;;13.90;81.90;;;;;;5057821;28;20029;-78
2021/08/27 04:37:16;;;;;;;2.67;0.85;;;13.90;82.00;;;;;;5075798;28;20114;-78
2021/08/27 04:39:41;;;;;;;2.28;0.70;;;13.90;82.00;;;;;;5057652;28;20029;-78
2021/08/27 04:45:29;;;;;;;3.45;0.88;;;13.90;82.20;;;;;;5075644;28;20388;-78
2021/08/27 04:47:54;;;;;;;1.80;0.63;;;13.90;82.10;;;;;;5057990;28;20024;-78
2021/08/27 04:50:20;;;;;;;1.95;0.70;;;13.90;82.10;;;;;;5075434;28;20025;-78
2021/08/27 04:52:45;;;;;;;2.33;0.68;;;13.90;82.20;;;;;;5057507;28;20028;-78
2021/08/27 04:55:11;;;;;;;1.42;0.55;;;13.90;82.20;;;;;;5057599;28;20061;-78
2021/08/27 04:57:40;;;;;;;1.75;0.50;;;13.90;82.20;;;;;;5057404;28;20365;-78
2021/08/27 05:00:08;;;;;;;1.75;1.00;;;13.90;82.20;;;;;;5057429;28;20032;-78
2021/08/27 05:02:35;;;;;;;4.00;0.80;;;14.00;82.30;;;;;;5075194;28;20032;-79
2021/08/27 05:05:01;;;;;;;1.77;0.70;;;14.00;82.80;;;;;;5075250;28;20526;-78
2021/08/27 05:07:27;;;;;;;2.30;0.90;;;14.00;82.30;;;;;;5057138;28;20032;-78
2021/08/27 05:09:52;;;;;;;2.50;0.70;;;14.00;82.30;;;;;;5057008;28;20378;-78
2021/08/27 05:12:18;;;;;;;3.10;1.08;;;14.00;82.20;;;;;;5057262;28;20399;-78
2021/08/27 05:14:43;;;;;;;3.45;0.80;;;14.10;82.20;;;;;;5074471;28;20108;-78
2021/08/27 05:17:09;;;;;;;1.77;0.73;;;14.10;82.20;;;;;;5056967;28;20028;-78
2021/08/27 05:19:34;;;;;;;1.35;0.70;;;14.10;82.20;;;;;;5056886;28;20032;-78
2021/08/27 05:22:00;;;;;;;2.05;0.90;;;14.20;82.20;;;;;;5056588;28;20042;-79
2021/08/27 05:24:26;;;;;;;1.42;0.93;;;14.20;82.20;;;;;;5056762;28;20033;-78
2021/08/27 05:26:54;;;;;;;1.08;0.65;;;14.20;82.10;;;;;;5056964;28;20450;-78
2021/08/27 05:29:19;;;;;;;2.33;0.98;;;14.30;82.10;;;;;;5074908;28;20032;-78
2021/08/27 05:31:45;;;;;;;2.38;0.90;;;14.40;82.10;;;;;;5057594;28;20027;-78
2021/08/27 05:34:10;;;;;;;3.92;0.88;;;14.40;82.10;;;;;;5057655;28;20107;-78
2021/08/27 05:36:36;;;;;;;1.17;0.60;;;14.40;82.10;;;;;;5056754;28;20111;-78
2021/08/27 05:39:03;;;;;;;1.90;1.00;;;14.40;82.10;;;;;;5056689;28;20024;-78
2021/08/27 05:41:29;;;;;;;2.20;0.90;;;14.50;82.20;;;;;;5056551;28;20025;-78
2021/08/27 05:43:55;;;;;;;1.75;0.90;;;14.50;82.10;;;;;;5074497;28;20028;-77
2021/08/27 05:46:21;;;;;;;3.70;0.75;;;14.50;82.10;;;;;;5074472;28;20032;-78
2021/08/27 05:48:46;;;;;;;4.05;0.90;;;14.50;82.00;;;;;;5056459;28;20021;-78
2021/08/27 05:51:12;;;;;;;2.53;0.82;;;14.60;82.00;;;;;;5056388;28;20031;-78
2021/08/27 05:53:37;;;;;;;1.52;0.85;;;14.70;82.10;;;;;;5056245;28;20024;-78
2021/08/27 05:56:03;;;;;;;1.55;0.70;;;14.70;82.20;;;;;;5056486;28;20028;-78
2021/08/27 05:58:29;;;;;;;1.40;0.70;;;14.80;82.00;;;;;;5056272;28;20032;-77
2021/08/27 06:00:56;;;;;;;2.30;0.68;;;14.90;81.90;;;;;;5056820;28;20035;-78
2021/08/27 06:03:21;;;;;;;2.35;0.90;;;14.90;81.90;;;;;;5056083;28;20162;-78
2021/08/27 06:05:47;;;;;;;4.00;1.00;;;15.00;81.90;;;;;;5056635;28;20058;-78
2021/08/27 06:08:13;;;;;;;2.75;0.90;;;15.00;81.80;;;;;;5056112;28;20031;-78
2021/08/27 06:10:38;;;;;;;3.15;0.82;;;15.10;81.80;;;;;;5056110;28;20502;-78
2021/08/27 06:13:04;;;;;;;0.65;0.63;;;15.10;81.70;;;;;;5074102;28;20025;-78
2021/08/27 06:15:31;;;;;;;1.85;0.73;;;15.10;81.70;;;;;;5055973;28;20028;-78
2021/08/27 06:17:56;;;;;;;1.48;1.00;;;15.10;81.70;;;;;;5074294;28;20024;-78
2021/08/27 06:20:22;;;;;;;2.33;0.82;;;15.20;81.70;;;;;;5056004;28;20488;-78
2021/08/27 06:22:48;;;;;;;3.08;0.90;;;15.20;81.70;;;;;;5055718;28;20506;-78
2021/08/27 06:25:13;;;;;;;1.33;0.70;;;15.20;81.60;;;;;;5055495;28;20047;-78
2021/08/27 06:27:39;;;;;;;3.70;0.70;;;15.30;81.60;;;;;;5054950;28;20028;-78
2021/08/27 06:30:06;;;;;;;4.28;1.00;;;15.30;81.60;;;;;;5055959;28;20119;-78
2021/08/27 06:32:31;;;;;;;2.55;0.93;;;15.30;81.50;;;;;;5056583;28;20453;-78
2021/08/27 06:34:57;;;;;;;2.83;0.80;;;15.40;81.50;;;;;;5056123;28;20112;-78
2021/08/27 06:38:21;;;;;;;2.45;1.00;;;15.40;81.50;;;;;;5055326;28;20074;-77
2021/08/27 06:40:10;;;;;;;4.00;1.10;;;15.40;81.40;;;;;;5073218;28;20033;-78
2021/08/27 06:42:36;;;;;;;3.03;1.00;;;15.50;81.40;;;;;;5055229;28;20391;-79
2021/08/27 06:45:03;;;;;;;1.35;0.82;;;15.60;81.30;;;;;;5055491;28;20038;-80
2021/08/27 06:47:28;;;;;;;1.98;0.80;;;15.60;81.20;;;;;;5073360;28;20523;-78
2021/08/27 06:49:54;;;;;;;2.88;0.60;;;15.70;81.10;;;;;;5055443;28;20078;-78
2021/08/27 06:52:20;;;;;;;4.50;1.13;;;15.80;80.90;;;;;;5055459;28;20029;-79
2021/08/27 06:54:45;;;;;;;3.03;1.05;;;15.90;80.80;;;;;;5055150;28;20551;-78
2021/08/27 06:57:11;;;;;;;1.20;0.70;;;16.00;80.70;;;;;;5073763;28;20495;-78
2021/08/27 06:59:36;;;;;;;2.28;0.98;;;16.00;80.50;;;;;;5073389;28;20522;-78
2021/08/27 07:02:02;;;;;;;3.67;0.80;;;16.00;80.50;;;;;;5055373;28;20021;-79
2021/08/27 07:04:30;;;;;;;4.13;0.90;;;16.10;80.50;;;;;;5055137;28;20535;-78
2021/08/27 07:06:56;;;;;;;1.52;0.60;;;16.10;80.30;;;;;;5073434;28;20028;-79
2021/08/27 07:09:21;;;;;;;1.45;0.80;;;16.20;80.20;;;;;;5054907;28;20124;-79
2021/08/27 07:11:47;;;;;;;2.90;1.10;;;16.30;80.10;;;;;;5054715;28;20032;-79
2021/08/27 07:14:13;;;;;;;1.15;0.55;;;16.30;79.90;;;;;;5072874;28;20507;-78
2021/08/27 07:16:38;;;;;;;2.35;0.90;;;16.40;79.80;;;;;;5054903;28;20563;-78
2021/08/27 07:19:04;;;;;;;1.63;0.80;;;16.40;79.70;;;;;;5055293;28;20028;-79
2021/08/27 07:21:30;;;;;;;1.77;0.77;;;16.50;79.60;;;;;;5055523;28;20020;-78
2021/08/27 07:23:55;;;;;;;2.33;0.88;;;16.60;79.40;;;;;;5054901;28;20431;-78
2021/08/27 07:26:21;;;;;;;1.77;0.57;;;16.60;79.30;;;;;;5055658;28;20032;-77
2021/08/27 07:28:47;;;;;;;2.53;0.80;;;16.70;79.20;;;;;;5057819;28;20092;-79
2021/08/27 07:31:13;;;;;;;1.85;0.70;;;16.80;78.90;;;;;;5055720;28;20040;-78
2021/08/27 07:33:38;;;;;;;2.47;0.80;;;16.90;78.90;;;;;;5056182;28;20029;-78
2021/08/27 07:36:04;;;;;;;3.15;1.27;;;17.00;78.70;;;;;;5055413;28;20017;-79
2021/08/27 07:38:30;;;;;;;3.10;0.90;;;17.10;78.50;;;;;;5056966;28;20031;-78
2021/08/27 07:40:55;;;;;;;3.00;0.95;;;17.10;78.20;;;;;;5059893;28;20476;-77
2021/08/27 07:43:21;;;;;;;2.72;0.82;;;17.20;78.10;;;;;;5059940;28;20032;-77
2021/08/27 07:45:48;;;;;;;2.28;0.90;;;17.20;78.00;;;;;;5058560;28;20028;-77
2021/08/27 07:48:16;;;;;;;4.00;1.08;;;17.30;77.90;;;;;;5058451;28;20040;-77
2021/08/27 07:50:42;;;;;;;3.38;0.90;;;17.30;77.50;;;;;;5058593;28;20029;-78
2021/08/27 07:53:07;;;;;;;5.75;1.25;;;17.40;77.50;;;;;;5076345;28;20026;-77
2021/08/27 07:55:33;;;;;;;5.38;1.35;;;17.40;77.50;;;;;;5058470;28;20055;-78
2021/08/27 07:57:58;;;;;;;5.88;1.00;;;17.40;77.30;;;;;;5058321;28;20023;-78
2021/08/27 08:00:25;;;;;;;3.78;1.00;;;17.40;77.20;;;;;;5058411;28;20384;-77
2021/08/27 08:02:50;;;;;;;3.50;1.00;;;17.40;77.20;;;;;;5076241;28;20036;-77
2021/08/27 08:05:16;;;;;;;2.67;1.02;;;17.30;77.20;;;;;;5058170;28;20020;-77
2021/08/27 08:07:41;;;;;;;2.75;0.98;;;17.30;77.20;;;;;;5075984;28;20179;-77
2021/08/27 08:10:08;;;;;;;1.98;1.05;;;17.30;77.40;;;;;;5058015;28;20032;-77
2021/08/27 08:12:33;;;;;;;1.75;0.75;;;17.20;77.50;;;;;;5093244;28;20031;-77
2021/08/27 08:14:59;;;;;;;1.67;0.70;;;17.20;77.70;;;;;;5077764;28;20033;-77
2021/08/27 08:17:25;;;;;;;1.35;0.80;;;17.10;77.80;;;;;;5058244;28;20013;-76
2021/08/27 08:19:50;;;;;;;3.28;0.80;;;17.20;77.90;;;;;;5058409;28;20032;-77
2021/08/27 08:22:19;;;;;;;2.92;1.00;;;17.20;77.90;;;;;;5076163;28;20025;-76
2021/08/27 08:24:45;;;;;;;2.33;0.90;;;17.20;78.00;;;;;;5057945;28;20032;-77
2021/08/27 08:27:10;;;;;;;2.10;0.90;;;17.20;77.80;;;;;;5075868;28;20025;-77
2021/08/27 08:29:39;;;;;;;3.25;0.90;;;17.20;77.60;;;;;;5075653;28;20024;-76
2021/08/27 08:32:06;;;;;;;4.22;1.13;;;17.20;77.60;;;;;;5057808;28;20082;-77
2021/08/27 08:34:32;;;;;;;2.72;0.80;;;17.10;77.80;;;;;;5091347;28;20020;-77
2021/08/27 08:36:57;;;;;;;3.65;0.95;;;17.20;77.80;;;;;;5075863;28;20017;-77
2021/08/27 08:39:23;;;;;;;3.00;1.10;;;17.20;77.50;;;;;;5058056;28;20040;-77
2021/08/27 08:41:49;;;;;;;2.53;0.90;;;17.30;77.50;;;;;;5075623;28;20029;-78
2021/08/27 08:44:16;;;;;;;3.58;1.10;;;17.40;77.50;;;;;;5057533;28;20032;-77
2021/08/27 08:46:44;;;;;;;2.10;0.90;;;17.50;77.30;;;;;;5075449;28;20032;-77
2021/08/27 08:49:12;;;;;;;4.05;1.30;;;17.70;77.10;;;;;;5057278;28;20017;-77
2021/08/27 08:51:43;;;;;;;1.88;0.80;;;17.80;76.60;;;;;;5056893;28;20031;-77
2021/08/27 08:54:12;;;;;;;4.70;0.93;;;18.00;76.40;;;;;;5075728;28;20048;-77
2021/08/27 08:56:37;;;;;;;3.30;1.13;;;18.10;75.70;;;;;;5057342;28;20106;-77
2021/08/27 08:59:03;;;;;;;4.25;1.45;;;18.30;75.00;;;;;;5076009;28;20017;-77
2021/08/27 09:01:28;;;;;;;4.75;1.20;;;18.30;74.60;;;;;;5057621;28;20020;-77
2021/08/27 09:03:54;;;;;;;3.33;1.20;;;18.40;74.40;;;;;;5057460;28;20108;-77
2021/08/27 09:06:20;;;;;;;1.80;0.93;;;18.40;74.20;;;;;;5075161;28;20464;-77
2021/08/27 09:08:47;;;;;;;3.97;1.27;;;18.40;74.10;;;;;;5075498;28;20487;-77
2021/08/27 09:11:26;;;;;;;2.85;1.15;;;18.40;74.30;;;;;;5057837;28;20099;-77
2021/08/27 09:13:58;;;;;;;3.70;1.20;;;18.30;74.20;;;;;;5057221;28;20016;-77
2021/08/27 09:16:27;;;;;;;3.67;1.08;;;18.30;75.00;;;;;;5057074;28;20020;-77
2021/08/27 09:18:53;;;;;;;2.50;1.38;;;18.40;74.30;;;;;;5057723;28;20021;-77
2021/08/27 09:21:26;;;;;;;2.92;1.05;;;18.40;74.30;;;;;;5058303;28;20031;-77
2021/08/27 09:24:21;;;;;;;2.08;1.00;;;18.60;74.20;;;;;;5074788;28;20058;-76
2021/08/27 09:26:58;;;;;;;4.45;1.30;;;18.70;73.80;;;;;;5074556;28;20041;-76
2021/08/27 09:29:31;;;;;;;2.75;1.08;;;18.90;73.50;;;;;;5074792;28;20031;-76
2021/08/27 09:31:57;;;;;;;3.23;1.17;;;19.00;72.90;;;;;;5056738;28;20024;-77
2021/08/27 09:34:27;;;;;;;2.58;1.20;;;19.10;72.70;;;;;;5074681;28;20444;-76
2021/08/27 09:36:57;;;;;;;4.65;1.38;;;19.10;72.40;;;;;;5056527;28;20480;-76
2021/08/27 09:39:31;;;;;;;1.75;0.88;;;19.10;72.30;;;;;;5074485;28;20106;-76
2021/08/27 09:41:57;;;;;;;3.95;1.23;;;19.10;72.50;;;;;;5074520;28;20032;-77
2021/08/27 09:44:23;;;;;;;6.15;1.65;;;19.10;72.20;;;;;;5074547;28;20027;-77
2021/08/27 09:46:49;;;;;;;2.15;1.10;;;18.90;72.40;;;;;;5074240;28;20028;-76
2021/08/27 09:49:35;;;;;;;3.33;1.00;;;18.90;72.80;;;;;;5074222;28;20035;-77
2021/08/27 09:52:08;;;;;;;3.63;1.10;;;18.90;72.80;;;;;;5074147;28;20035;-75
2021/08/27 09:54:38;;;;;;;3.58;1.13;;;19.00;72.60;;;;;;5074210;28;20024;-76
2021/08/27 09:57:06;;;;;;;4.15;1.02;;;19.00;72.30;;;;;;5074342;28;20543;-76
2021/08/27 09:59:42;;;;;;;4.38;1.17;;;19.10;72.90;;;;;;5089723;28;20025;-77
2021/08/27 10:02:13;;;;;;;2.50;1.10;;;19.20;72.00;;;;;;5072950;28;20024;-76
2021/08/27 10:05:01;;;;;;;2.78;1.13;;;19.40;71.60;;;;;;5056031;28;20039;-76
2021/08/27 10:07:31;;;;;;;2.05;1.10;;;19.60;70.50;;;;;;5073908;28;20035;-76
2021/08/27 10:10:01;;;;;;;2.58;0.98;;;19.70;70.50;;;;;;5073735;28;20033;-76
2021/08/27 10:12:32;;;;;;;3.00;1.10;;;19.80;69.90;;;;;;5055945;28;20031;-77
2021/08/27 10:14:58;;;;;;;3.58;1.20;;;19.80;70.00;;;;;;5055843;28;20016;-77
2021/08/27 10:17:24;;;;;;;3.05;1.08;;;19.80;69.90;;;;;;5055813;28;20453;-77
2021/08/27 10:19:50;;;;;;;3.47;1.30;;;19.20;72.50;;;;;;5074650;28;20111;-77
2021/08/27 10:22:16;;;;;;;2.92;0.88;;;18.50;74.60;;;;;;5074384;28;20060;-77
2021/08/27 10:24:43;;;;;;;3.13;1.42;;;17.90;76.20;;;;;;5073979;28;20031;-76
2021/08/27 10:27:10;;;;;;;3.78;1.17;;;17.50;78.40;;;;;;5073763;28;20032;-77
2021/08/27 10:29:55;;;;;;;3.58;1.00;;;17.20;79.60;;;;;;5073486;28;20064;-76
2021/08/27 10:32:38;;;;;;;2.47;1.00;;;17.00;80.20;;;;;;5073593;28;20052;-77
2021/08/27 10:35:09;;;;;;;2.25;0.90;;;16.90;80.70;;;;;;5073507;28;20073;-77
2021/08/27 10:37:46;;;;;;;2.97;1.08;;;16.80;81.00;;;;;;5073491;28;20017;-77
2021/08/27 10:40:25;;;;;;;2.92;1.00;;;16.70;81.40;;;;;;5073344;28;20498;-76
2021/08/27 10:42:59;;;;;;;2.75;1.02;;;16.60;81.80;;;;;;5055314;28;20086;-76
2021/08/27 10:45:40;;;;;;;1.95;1.10;;;16.70;82.30;;;;;;5055281;28;20119;-76
2021/08/27 10:48:20;;;;;;;3.33;1.13;;;16.70;82.40;;;;;;5055300;28;20056;-76
2021/08/27 10:50:49;;;;;;;1.48;0.77;;;16.90;82.60;;;;;;5055219;28;20155;-77
2021/08/27 10:53:35;;;;;;;2.40;1.02;;;17.10;82.40;;;;;;5073911;28;20035;-77
2021/08/27 10:56:05;;;;;;;2.70;0.90;;;17.30;83.10;;;;;;5080870;28;20535;-76
2021/08/27 10:58:43;;;;;;;2.25;0.65;;;17.30;82.50;;;;;;5058153;28;20069;-76
2021/08/27 11:01:30;;;;;;;1.80;0.80;;;17.40;82.70;;;;;;5058441;28;20476;-76
2021/08/27 11:04:20;;;;;;;2.30;0.77;;;17.40;82.50;;;;;;5057864;28;20021;-77
2021/08/27 11:06:53;;;;;;;2.28;0.95;;;17.50;82.50;;;;;;5057965;28;20115;-77
2021/08/27 11:09:23;;;;;;;3.20;0.83;;;17.50;82.30;;;;;;5058094;28;20534;-76
2021/08/27 11:12:07;;;;;;;2.10;0.63;;;17.60;82.40;;;;;;5074665;28;20078;-76
2021/08/27 11:14:33;;;;;;;2.67;0.88;;;17.70;81.90;;;;;;5075961;28;20064;-77
2021/08/27 11:17:03;;;;;;;1.95;0.90;;;17.80;81.70;;;;;;5058833;28;20028;-76
2021/08/27 11:19:36;;;;;;;3.05;1.08;;;17.90;81.30;;;;;;5077455;28;20017;-76
2021/08/27 11:22:11;;;;;;;3.10;0.98;;;18.00;81.10;;;;;;5076234;28;20033;-76
2021/08/27 11:24:37;;;;;;;2.65;0.82;;;18.20;80.80;;;;;;5058122;28;20039;-76
2021/08/27 11:27:16;;;;;;;3.30;1.05;;;18.30;80.50;;;;;;5059690;28;20462;-76
2021/08/27 11:29:43;;;;;;;2.30;0.88;;;18.40;80.30;;;;;;5075753;28;20032;-76
2021/08/27 11:32:27;;;;;;;3.80;0.88;;;18.50;80.00;;;;;;5075931;28;20036;-77
2021/08/27 11:34:58;;;;;;;;;;;18.60;79.60;;;;;;5057226;28;20031;-76
2021/08/27 11:37:29;;;;;;;4.88;0.98;;;18.70;78.90;;;;;;5074715;28;19939;-77
2021/08/27 11:39:54;;;;;;;2.20;0.77;;;18.70;78.90;;;;;;5074065;28;20032;-76
2021/08/27 11:42:21;;;;;;;1.60;0.93;;;18.70;78.60;;;;;;5056288;28;20021;-76
2021/08/27 11:45:10;;;;;;;3.78;1.20;;;18.90;78.30;;;;;;5055806;28;20388;-76
2021/08/27 11:47:43;;;;;;;2.25;1.20;;;19.00;77.60;;;;;;5055240;28;20032;-76
2021/08/27 11:50:21;;;;;;;2.80;1.23;;;19.10;77.80;;;;;;5055666;28;20029;-75
2021/08/27 11:52:49;;;;;;;5.18;1.30;;;19.20;76.40;;;;;;5073570;28;20107;-75
2021/08/27 11:55:16;;;;;;;3.03;1.13;;;19.30;76.00;;;;;;5073220;28;20013;-76
2021/08/27 11:57:52;;;;;;;3.63;1.20;;;19.40;75.40;;;;;;5055060;28;20017;-76
2021/08/27 12:00:20;;;;;;;4.80;1.10;;;19.30;74.90;;;;;;5054602;28;20426;-76
2021/08/27 12:02:54;;;;;;;3.05;1.10;;;19.30;75.00;;;;;;5054754;28;20029;-76
2021/08/27 12:05:20;;;;;;;2.88;1.20;;;19.30;75.10;;;;;;5054466;28;20024;-75
2021/08/27 12:07:57;;;;;;;2.80;1.10;;;19.30;75.20;;;;;;5072397;28;20028;-75
2021/08/27 12:10:24;;;;;;;3.03;1.05;;;19.40;75.00;;;;;;5054279;28;20025;-75
2021/08/27 12:12:51;;;;;;;3.35;1.20;;;19.50;74.80;;;;;;5054213;28;20024;-75
2021/08/27 12:15:23;;;;;;;4.57;1.40;;;19.70;74.60;;;;;;5054326;28;20112;-76
2021/08/27 12:18:02;;;;;;;4.90;1.70;;;19.80;73.30;;;;;;5054968;28;20027;-76
2021/08/27 12:20:31;;;;;;;6.13;1.40;;;19.70;73.50;;;;;;5072331;28;20434;-76
2021/08/27 12:23:16;;;;;;;3.55;1.52;;;19.80;73.50;;;;;;5054400;28;20033;-75
2021/08/27 12:25:46;;;;;;;3.88;1.17;;;19.90;73.00;;;;;;5049133;28;20049;-77
2021/08/27 12:28:15;;;;;;;5.38;1.40;;;20.00;72.40;;;;;;5036074;28;20017;-77
2021/08/27 12:30:49;;;;;;;3.80;1.42;;;20.10;71.30;;;;;;5036259;28;20498;-77
2021/08/27 12:33:16;;;;;;;3.90;1.23;;;20.10;71.20;;;;;;5036011;28;20027;-77
2021/08/27 12:35:42;;;;;;;5.30;1.42;;;20.20;70.90;;;;;;5067819;28;20495;-76
2021/08/27 12:38:07;;;;;;;6.57;1.80;;;20.20;70.80;;;;;;5035785;28;20100;-76
2021/08/27 12:40:34;;;;;;;5.07;1.50;;;20.20;71.00;;;;;;5067742;28;20017;-77
2021/08/27 12:43:26;;;;;;;4.32;1.60;;;20.00;70.90;;;;;;5068049;28;20017;-77
2021/08/27 12:45:56;;;;;;;6.90;1.63;;;19.70;71.20;;;;;;5032503;28;20040;-76
2021/08/27 12:48:30;;;;;;;4.05;1.20;;;19.50;72.10;;;;;;5067789;28;20470;-77
2021/08/27 12:51:00;;;;;;;2.83;1.25;;;19.50;72.30;;;;;;5034607;28;20025;-77
2021/08/27 12:53:33;;;;;;;4.00;1.17;;;19.60;72.30;;;;;;5067694;28;20022;-77
2021/08/27 12:56:16;;;;;;;3.72;1.40;;;19.80;71.40;;;;;;5034168;28;20029;-77
2021/08/27 12:58:50;;;;;;;6.03;1.60;;;20.00;71.10;;;;;;5034184;28;20018;-76
2021/08/27 13:01:20;;;;;;;3.03;1.60;;;20.10;70.70;;;;;;5035376;28;20495;-76
2021/08/27 13:03:49;;;;;;;5.38;1.60;;;20.10;70.50;;;;;;5035257;28;20389;-77